createdAt,value
2019-03-05T00:02:14.175Z,73.65
2019-03-05T00:04:45.443Z,73.19
2019-03-05T00:07:16.553Z,73.16
2019-03-05T00:09:47.721Z,73.03
2019-03-05T00:12:18.766Z,73.28
2019-03-05T00:14:49.983Z,73.10
2019-03-05T00:17:21.339Z,73.17
2019-03-05T00:19:52.549Z,72.98
2019-03-05T00:22:23.713Z,72.74
2019-03-05T00:25:12.125Z,72.90
2019-03-05T00:28:25.083Z,72.32
2019-03-05T00:31:12.097Z,73.00
2019-03-05T00:34:20.383Z,72.15
2019-03-05T00:37:09.579Z,72.25
2019-03-05T00:40:32.426Z,72.16
2019-03-05T00:43:53.998Z,72.25
2019-03-05T00:47:14.661Z,72.15
2019-03-05T00:51:00.971Z,72.59
2019-03-05T00:54:32.471Z,72.36
2019-03-05T00:57:21.094Z,72.79
2019-03-05T01:00:32.236Z,72.49
2019-03-05T01:03:22.269Z,72.09
2019-03-05T01:06:25.363Z,71.93
2019-03-05T01:08:57.973Z,71.75
2019-03-05T01:11:29.618Z,71.57
2019-03-05T01:14:01.083Z,72.16
2019-03-05T01:16:34.529Z,72.03
2019-03-05T01:19:05.709Z,72.07
2019-03-05T01:21:36.893Z,71.85
2019-03-05T01:24:08.585Z,72.34
2019-03-05T01:26:39.756Z,72.67
2019-03-05T01:29:10.915Z,71.78
2019-03-05T01:32:06.840Z,71.98
2019-03-05T01:34:52.295Z,72.08
2019-03-05T01:37:23.645Z,71.94
2019-03-05T01:40:13.616Z,71.66
2019-03-05T01:42:44.776Z,71.52
2019-03-05T01:45:16.943Z,70.93
2019-03-05T01:47:48.137Z,71.38
2019-03-05T01:50:19.426Z,70.93
2019-03-05T01:52:50.545Z,70.47
2019-03-05T01:55:21.711Z,70.60
2019-03-05T01:58:11.928Z,70.17
2019-03-05T02:00:43.220Z,69.82
2019-03-05T02:03:14.472Z,69.80
2019-03-05T02:05:45.703Z,69.58
2019-03-05T02:08:16.925Z,69.33
2019-03-05T02:10:48.150Z,69.75
2019-03-05T02:13:19.500Z,69.57
2019-03-05T02:15:50.772Z,71.02
2019-03-05T02:18:24.329Z,70.00
2019-03-05T02:20:55.591Z,69.44
2019-03-05T02:24:02.438Z,69.53
2019-03-05T02:27:41.607Z,70.25
2019-03-05T02:30:32.100Z,73.23
2019-03-05T02:33:30.040Z,76.65
2019-03-05T02:36:47.829Z,77.32
2019-03-05T02:40:16.611Z,79.49
2019-03-05T02:43:32.045Z,81.31
2019-03-05T02:46:41.925Z,81.86
2019-03-05T02:49:58.749Z,82.49
2019-03-05T02:53:04.787Z,83.58
2019-03-05T02:56:03.985Z,84.11
2019-03-05T02:58:32.432Z,83.94
2019-03-05T03:01:25.407Z,84.39
2019-03-05T03:04:00.297Z,84.33
2019-03-05T03:06:50.627Z,83.60
2019-03-05T03:10:13.381Z,82.17
2019-03-05T03:12:45.184Z,81.82
2019-03-05T03:15:18.503Z,82.63
2019-03-05T03:17:50.766Z,82.94
2019-03-05T03:20:23.494Z,82.98
2019-03-05T03:22:54.923Z,83.30
2019-03-05T03:25:26.580Z,82.73
2019-03-05T03:27:57.848Z,81.58
2019-03-05T03:30:31.060Z,81.64
2019-03-05T03:33:02.427Z,81.35
2019-03-05T03:35:33.638Z,80.62
2019-03-05T03:38:04.777Z,80.81
2019-03-05T03:40:35.925Z,80.77
2019-03-05T03:43:07.295Z,80.95
2019-03-05T03:45:38.454Z,81.09
2019-03-05T03:48:09.688Z,80.67
2019-03-05T03:50:40.813Z,80.11
2019-03-05T03:53:12.090Z,80.02
2019-03-05T03:55:43.541Z,79.76
2019-03-05T03:58:14.869Z,80.05
2019-03-05T04:00:46.147Z,79.32
2019-03-05T04:03:17.479Z,78.79
2019-03-05T04:05:48.793Z,79.45
2019-03-05T04:08:20.155Z,78.63
2019-03-05T04:10:51.405Z,78.45
2019-03-05T04:13:22.593Z,78.45
2019-03-05T04:15:53.897Z,78.64
2019-03-05T04:18:25.174Z,78.43
2019-03-05T04:20:56.414Z,77.42
2019-03-05T04:23:27.591Z,78.04
2019-03-05T04:25:58.733Z,78.38
2019-03-05T04:28:30.123Z,77.98
2019-03-05T04:31:01.279Z,78.40
2019-03-05T04:33:32.539Z,77.42
2019-03-05T04:36:03.757Z,77.33
2019-03-05T04:38:35.032Z,76.83
2019-03-05T04:41:06.254Z,77.60
2019-03-05T04:43:37.498Z,77.65
2019-03-05T04:46:27.465Z,77.40
2019-03-05T04:49:32.449Z,77.24
2019-03-05T04:52:06.276Z,76.99
2019-03-05T04:54:37.504Z,76.28
2019-03-05T04:57:08.740Z,76.26
2019-03-05T04:59:39.922Z,75.82
2019-03-05T05:02:11.048Z,75.65
2019-03-05T05:04:42.173Z,75.53
2019-03-05T05:07:13.353Z,75.14
2019-03-05T05:09:44.474Z,76.30
2019-03-05T05:12:15.743Z,75.50
2019-03-05T05:14:46.933Z,75.46
2019-03-05T05:17:18.090Z,75.75
2019-03-05T05:19:49.266Z,74.89
2019-03-05T05:22:20.479Z,75.78
2019-03-05T05:24:51.658Z,74.74
2019-03-05T05:27:22.821Z,74.93
2019-03-05T05:29:54.050Z,74.65
2019-03-05T05:32:25.255Z,74.12
2019-03-05T05:34:56.490Z,74.26
2019-03-05T05:37:27.599Z,74.28
2019-03-05T05:40:27.737Z,74.21
2019-03-05T05:42:59.057Z,74.49
2019-03-05T05:45:58.378Z,74.65
2019-03-05T05:48:29.584Z,74.73
2019-03-05T05:51:00.961Z,74.62
2019-03-05T05:53:32.175Z,74.16
2019-03-05T05:56:03.436Z,74.08
2019-03-05T05:58:34.554Z,74.44
2019-03-05T06:01:09.943Z,74.12
2019-03-05T06:03:41.136Z,74.02
2019-03-05T06:06:12.304Z,73.70
2019-03-05T06:08:43.509Z,74.15
2019-03-05T06:11:14.740Z,74.38
2019-03-05T06:13:46.023Z,74.03
2019-03-05T06:16:17.290Z,74.44
2019-03-05T06:18:48.521Z,74.37
2019-03-05T06:21:19.610Z,74.12
2019-03-05T06:23:50.847Z,74.21
2019-03-05T06:26:22.061Z,73.27
2019-03-05T06:28:53.332Z,73.29
2019-03-05T06:32:02.571Z,73.39
2019-03-05T06:34:33.861Z,73.27
2019-03-05T06:37:05.147Z,72.98
2019-03-05T06:39:36.388Z,73.14
2019-03-05T06:42:07.847Z,73.09
2019-03-05T06:44:39.060Z,73.42
2019-03-05T06:47:10.228Z,72.54
2019-03-05T06:49:41.447Z,72.73
2019-03-05T06:52:12.802Z,72.82
2019-03-05T06:54:44.015Z,72.71
2019-03-05T06:57:15.371Z,72.96
2019-03-05T06:59:46.593Z,73.07
2019-03-05T07:02:18.216Z,72.84
2019-03-05T07:04:58.640Z,72.25
2019-03-05T07:07:33.638Z,72.43
2019-03-05T07:10:36.604Z,72.26
2019-03-05T07:13:18.232Z,72.35
2019-03-05T07:17:11.853Z,72.84
2019-03-05T07:20:57.475Z,72.99
2019-03-05T07:24:35.841Z,72.65
2019-03-05T07:27:07.277Z,73.00
2019-03-05T07:29:39.921Z,72.89
2019-03-05T07:32:11.092Z,73.41
2019-03-05T07:34:45.356Z,72.87
2019-03-05T07:37:16.780Z,73.56
2019-03-05T07:40:07.775Z,73.28
2019-03-05T07:42:38.948Z,73.42
2019-03-05T07:45:12.247Z,73.02
2019-03-05T07:47:43.552Z,73.02
2019-03-05T07:50:15.007Z,72.97
2019-03-05T07:52:46.234Z,73.27
2019-03-05T07:55:19.068Z,72.94
2019-03-05T07:57:50.309Z,73.80
2019-03-05T08:00:23.134Z,73.83
2019-03-05T08:02:54.354Z,73.10
2019-03-05T08:05:25.502Z,73.34
2019-03-05T08:07:56.745Z,73.43
2019-03-05T08:10:33.697Z,73.41
2019-03-05T08:13:59.914Z,73.89
2019-03-05T08:16:34.545Z,73.49
2019-03-05T08:19:05.807Z,74.04
2019-03-05T08:21:37.382Z,74.05
2019-03-05T08:24:08.659Z,74.24
2019-03-05T08:26:39.939Z,74.77
2019-03-05T08:29:11.173Z,75.08
2019-03-05T08:31:42.342Z,75.39
2019-03-05T08:34:13.574Z,75.86
2019-03-05T08:36:50.789Z,75.89
2019-03-05T08:39:22.032Z,76.24
2019-03-05T08:41:53.210Z,76.69
2019-03-05T08:44:24.326Z,76.53
2019-03-05T08:46:55.615Z,76.89
2019-03-05T08:49:26.819Z,76.62
2019-03-05T08:51:58.134Z,76.34
2019-03-05T08:54:29.295Z,76.12
2019-03-05T08:57:01.816Z,76.15
2019-03-05T08:59:33.038Z,75.90
2019-03-05T09:02:05.420Z,75.66
2019-03-05T09:04:37.977Z,75.35
2019-03-05T09:07:09.231Z,74.98
2019-03-05T09:09:40.473Z,74.14
2019-03-05T09:12:12.001Z,73.75
2019-03-05T09:14:43.239Z,73.83
2019-03-05T09:17:15.261Z,73.55
2019-03-05T09:19:46.407Z,73.13
2019-03-05T09:22:17.629Z,73.73
2019-03-05T09:24:48.902Z,72.17
2019-03-05T09:27:20.086Z,71.43
2019-03-05T09:29:51.597Z,71.65
2019-03-05T09:32:22.741Z,73.98
2019-03-05T09:34:53.999Z,75.20
2019-03-05T09:37:25.182Z,75.62
2019-03-05T09:39:57.411Z,75.32
2019-03-05T09:42:39.315Z,74.76
2019-03-05T09:45:01.539Z,73.87
2019-03-05T09:47:32.799Z,73.98
2019-03-05T09:50:04.051Z,73.65
2019-03-05T09:52:35.444Z,72.72
2019-03-05T09:55:07.871Z,73.63
2019-03-05T09:57:40.961Z,73.65
2019-03-05T10:00:18.612Z,73.86
2019-03-05T10:02:50.158Z,73.53
2019-03-05T10:05:21.547Z,72.25
2019-03-05T10:07:52.904Z,70.82
2019-03-05T10:10:25.798Z,70.06
2019-03-05T10:12:59.160Z,68.95
2019-03-05T10:15:31.061Z,68.39
2019-03-05T10:18:12.136Z,67.40
2019-03-05T10:20:35.433Z,67.76
2019-03-05T10:23:07.489Z,68.14
2019-03-05T10:25:38.703Z,67.99
2019-03-05T10:28:10.314Z,67.74
2019-03-05T10:30:43.023Z,64.32
2019-03-05T10:33:16.723Z,65.60
2019-03-05T10:35:48.099Z,65.24
2019-03-05T10:38:19.412Z,64.43
2019-03-05T10:40:51.600Z,64.09
2019-03-05T10:43:23.785Z,61.51
2019-03-05T10:45:55.202Z,61.31
2019-03-05T10:48:26.759Z,60.25
2019-03-05T10:50:58.710Z,62.10
2019-03-05T10:53:30.396Z,62.33
2019-03-05T10:56:01.792Z,61.91
2019-03-05T10:58:51.944Z,61.43
2019-03-05T11:01:43.072Z,60.77
2019-03-05T11:04:14.284Z,62.22
2019-03-05T11:06:45.623Z,62.69
2019-03-05T11:09:20.768Z,61.68
2019-03-05T11:11:52.113Z,60.40
2019-03-05T11:14:23.437Z,63.01
2019-03-05T11:16:54.820Z,60.46
2019-03-05T11:19:26.112Z,60.97
2019-03-05T11:21:57.364Z,60.06
2019-03-05T11:24:28.824Z,60.07
2019-03-05T11:27:00.224Z,62.13
2019-03-05T11:29:31.538Z,61.24
2019-03-05T11:32:02.872Z,60.58
2019-03-05T11:34:34.326Z,60.31
2019-03-05T11:37:12.387Z,61.26
2019-03-05T11:39:51.000Z,62.15
2019-03-05T11:42:22.173Z,62.08
2019-03-05T11:45:03.935Z,61.98
2019-03-05T11:47:26.391Z,61.94
2019-03-05T11:49:57.659Z,60.99
2019-03-05T11:52:28.936Z,60.25
2019-03-05T11:55:00.355Z,60.49
2019-03-05T11:57:31.642Z,58.26
2019-03-05T12:00:03.264Z,61.00
2019-03-05T12:02:34.539Z,60.92
2019-03-05T12:05:06.420Z,60.29
2019-03-05T12:07:59.327Z,61.45
2019-03-05T12:10:36.428Z,61.49
2019-03-05T12:13:10.579Z,61.38
2019-03-05T12:15:47.195Z,61.71
2019-03-05T12:18:19.373Z,58.86
2019-03-05T12:21:01.777Z,58.30
2019-03-05T12:23:33.131Z,58.97
2019-03-05T12:26:04.682Z,57.57
2019-03-05T12:28:35.963Z,56.04
2019-03-05T12:31:07.817Z,58.24
2019-03-05T12:33:39.205Z,54.77
2019-03-05T12:36:10.683Z,56.16
2019-03-05T12:38:41.855Z,55.61
2019-03-05T12:41:13.276Z,53.63
2019-03-05T12:43:45.585Z,52.61
2019-03-05T12:46:16.871Z,52.01
2019-03-05T12:48:48.138Z,52.38
2019-03-05T12:51:19.504Z,53.44
2019-03-05T12:53:50.880Z,53.62
2019-03-05T12:56:24.064Z,54.32
2019-03-05T12:58:55.149Z,53.02
2019-03-05T13:01:26.504Z,54.37
2019-03-05T13:03:57.835Z,52.54
2019-03-05T13:06:29.205Z,51.98
2019-03-05T13:09:00.470Z,51.54
2019-03-05T13:11:31.783Z,52.43
2019-03-05T13:14:06.096Z,50.72
2019-03-05T13:16:39.436Z,51.07
2019-03-05T13:19:09.858Z,50.90
2019-03-05T13:21:44.314Z,51.69
2019-03-05T13:24:15.152Z,51.19
2019-03-05T13:26:46.448Z,52.07
2019-03-05T13:29:19.290Z,51.58
2019-03-05T13:31:50.620Z,51.60
2019-03-05T13:34:21.794Z,53.27
2019-03-05T13:36:53.001Z,53.41
2019-03-05T13:39:24.425Z,52.29
2019-03-05T13:41:55.758Z,51.25
2019-03-05T13:44:37.161Z,51.71
2019-03-05T13:47:10.209Z,50.58
2019-03-05T13:50:31.240Z,50.10
2019-03-05T13:54:11.789Z,50.20
2019-03-05T13:57:46.201Z,49.82
2019-03-05T14:00:17.874Z,51.07
2019-03-05T14:03:22.874Z,50.79
2019-03-05T14:06:57.270Z,51.14
2019-03-05T14:09:25.678Z,52.88
2019-03-05T14:11:56.862Z,51.10
2019-03-05T14:14:32.114Z,51.32
2019-03-05T14:17:23.472Z,51.16
2019-03-05T14:20:16.099Z,50.46
2019-03-05T14:22:47.747Z,51.18
2019-03-05T14:25:19.013Z,52.10
2019-03-05T14:27:52.971Z,52.48
2019-03-05T14:30:28.406Z,51.62
2019-03-05T14:33:00.946Z,52.58
2019-03-05T14:35:35.753Z,52.57
2019-03-05T14:38:08.336Z,52.62
2019-03-05T14:40:40.818Z,51.92
2019-03-05T14:43:12.230Z,51.73
2019-03-05T14:45:43.546Z,51.78
2019-03-05T14:48:14.910Z,50.94
2019-03-05T14:50:46.040Z,49.54
2019-03-05T14:53:17.535Z,49.94
2019-03-05T14:55:49.095Z,50.66
2019-03-05T14:58:20.321Z,51.04
2019-03-05T15:00:51.653Z,49.91
2019-03-05T15:03:22.973Z,51.09
2019-03-05T15:05:56.366Z,50.94
2019-03-05T15:08:27.823Z,51.81
2019-03-05T15:10:59.058Z,51.21
2019-03-05T15:13:30.386Z,51.88
2019-03-05T15:16:01.743Z,51.01
2019-03-05T15:18:33.037Z,49.99
2019-03-05T15:21:04.247Z,50.35
2019-03-05T15:23:35.620Z,50.62
2019-03-05T15:26:07.036Z,51.10
2019-03-05T15:28:38.258Z,52.38
2019-03-05T15:31:09.597Z,50.72
2019-03-05T15:33:40.851Z,51.29
2019-03-05T15:36:23.786Z,50.52
2019-03-05T15:38:47.463Z,50.03
2019-03-05T15:41:18.801Z,50.06
2019-03-05T15:43:50.053Z,50.30
2019-03-05T15:46:21.333Z,50.97
2019-03-05T15:48:52.762Z,51.24
2019-03-05T15:51:24.002Z,51.84
2019-03-05T15:53:55.196Z,51.93
2019-03-05T15:56:26.506Z,53.05
2019-03-05T15:58:57.741Z,53.02
2019-03-05T16:01:29.000Z,54.86
2019-03-05T16:04:00.214Z,54.21
2019-03-05T16:06:34.067Z,55.21
2019-03-05T16:09:05.266Z,54.19
2019-03-05T16:11:36.526Z,54.38
2019-03-05T16:14:07.780Z,54.81
2019-03-05T16:16:41.846Z,54.86
2019-03-05T16:19:16.595Z,55.01
2019-03-05T16:21:46.213Z,54.17
2019-03-05T16:24:17.445Z,54.83
2019-03-05T16:26:48.647Z,53.98
2019-03-05T16:29:20.861Z,54.57
2019-03-05T16:32:23.056Z,55.04
2019-03-05T16:35:18.513Z,54.76
2019-03-05T16:38:06.583Z,56.62
2019-03-05T16:40:55.856Z,57.68
2019-03-05T16:43:49.188Z,58.10
2019-03-05T16:46:41.914Z,58.49
2019-03-05T16:49:31.952Z,57.61
2019-03-05T16:52:40.113Z,58.08
2019-03-05T16:55:28.656Z,58.66
2019-03-05T16:58:18.678Z,59.26
2019-03-05T17:01:07.312Z,59.44
2019-03-05T17:04:12.669Z,59.64
2019-03-05T17:07:17.900Z,59.68
2019-03-05T17:10:02.454Z,59.73
2019-03-05T17:12:34.029Z,58.64
2019-03-05T17:15:22.751Z,58.33
2019-03-05T17:17:53.975Z,58.88
2019-03-05T17:20:25.095Z,59.62
2019-03-05T17:22:56.452Z,60.03
2019-03-05T17:25:27.804Z,60.04
2019-03-05T17:27:59.146Z,60.34
2019-03-05T17:30:30.391Z,61.33
2019-03-05T17:33:01.740Z,61.86
2019-03-05T17:35:33.256Z,61.86
2019-03-05T17:38:04.734Z,61.94
2019-03-05T17:40:35.960Z,62.10
2019-03-05T17:43:07.597Z,61.64
2019-03-05T17:45:39.232Z,61.84
2019-03-05T17:48:10.538Z,62.39
2019-03-05T17:50:44.696Z,62.80
2019-03-05T17:53:18.927Z,63.76
2019-03-05T17:55:50.518Z,63.98
2019-03-05T17:58:21.950Z,64.57
2019-03-05T18:00:53.942Z,64.93
2019-03-05T18:03:25.202Z,64.60
2019-03-05T18:05:56.776Z,64.85
2019-03-05T18:08:28.022Z,64.68
2019-03-05T18:11:00.975Z,64.56
2019-03-05T18:13:32.478Z,64.72
2019-03-05T18:16:03.870Z,65.34
2019-03-05T18:18:38.419Z,65.32
2019-03-05T18:21:09.719Z,66.07
2019-03-05T18:23:42.682Z,66.48
2019-03-05T18:26:14.299Z,66.95
2019-03-05T18:28:45.602Z,67.15
2019-03-05T18:31:16.801Z,66.67
2019-03-05T18:33:48.039Z,67.50
2019-03-05T18:36:19.296Z,67.69
2019-03-05T18:38:50.551Z,67.04
2019-03-05T18:41:21.774Z,67.05
2019-03-05T18:43:53.046Z,66.08
2019-03-05T18:46:24.283Z,66.30
2019-03-05T18:48:55.698Z,66.45
2019-03-05T18:51:27.244Z,66.52
2019-03-05T18:53:58.578Z,65.69
2019-03-05T18:56:29.935Z,64.58
2019-03-05T18:59:01.199Z,64.00
2019-03-05T19:01:32.470Z,63.55
2019-03-05T19:04:06.019Z,63.51
2019-03-05T19:06:37.412Z,63.54
2019-03-05T19:09:09.621Z,63.85
2019-03-05T19:11:41.022Z,64.35
2019-03-05T19:14:12.247Z,64.73
2019-03-05T19:16:43.509Z,64.51
2019-03-05T19:19:14.755Z,64.47
2019-03-05T19:21:46.158Z,65.19
2019-03-05T19:24:17.360Z,65.07
2019-03-05T19:26:48.663Z,65.77
2019-03-05T19:29:20.145Z,65.92
2019-03-05T19:31:52.864Z,66.55
2019-03-05T19:34:28.298Z,67.13
2019-03-05T19:37:01.649Z,67.29
2019-03-05T19:39:34.562Z,67.74
2019-03-05T19:42:09.827Z,67.92
2019-03-05T19:44:42.824Z,68.28
2019-03-05T19:47:14.115Z,68.10
2019-03-05T19:49:45.398Z,68.61
2019-03-05T19:52:16.866Z,68.83
2019-03-05T19:54:48.158Z,68.77
2019-03-05T19:57:19.451Z,68.78
2019-03-05T19:59:50.860Z,69.24
2019-03-05T20:02:22.367Z,69.62
2019-03-05T20:04:53.658Z,69.83
2019-03-05T20:07:26.742Z,70.04
2019-03-05T20:09:59.955Z,70.76
2019-03-05T20:12:34.059Z,71.24
2019-03-05T20:15:06.093Z,71.28
2019-03-05T20:17:37.454Z,71.88
2019-03-05T20:20:10.509Z,71.91
2019-03-05T20:22:41.917Z,72.32
2019-03-05T20:25:18.863Z,72.26
2019-03-05T20:27:51.557Z,72.92
2019-03-05T20:30:27.034Z,72.94
2019-03-05T20:32:58.240Z,72.96
2019-03-05T20:35:29.562Z,73.00
2019-03-05T20:38:00.877Z,73.21
2019-03-05T20:40:32.368Z,73.82
2019-03-05T20:43:03.809Z,74.43
2019-03-05T20:45:35.233Z,74.07
2019-03-05T20:48:07.172Z,74.54
2019-03-05T20:50:38.536Z,74.99
2019-03-05T20:53:09.803Z,75.49
2019-03-05T20:55:41.054Z,75.42
2019-03-05T20:58:12.276Z,75.72
2019-03-05T21:00:44.036Z,76.23
2019-03-05T21:03:15.342Z,76.05
2019-03-05T21:05:46.735Z,75.91
2019-03-05T21:08:18.040Z,75.87
2019-03-05T21:10:51.169Z,75.89
2019-03-05T21:13:22.611Z,76.19
2019-03-05T21:15:54.066Z,76.08
2019-03-05T21:18:25.670Z,76.26
2019-03-05T21:20:57.079Z,76.54
2019-03-05T21:23:28.359Z,74.40
2019-03-05T21:25:59.655Z,74.05
2019-03-05T21:28:33.420Z,74.34
2019-03-05T21:31:04.763Z,74.57
2019-03-05T21:33:36.072Z,74.58
2019-03-05T21:36:08.207Z,74.16
2019-03-05T21:38:39.521Z,73.13
2019-03-05T21:41:11.144Z,73.99
2019-03-05T21:43:42.676Z,74.71
2019-03-05T21:46:18.551Z,73.73
2019-03-05T21:48:49.893Z,73.87
2019-03-05T21:51:21.161Z,74.32
2019-03-05T21:53:52.496Z,74.77
2019-03-05T21:56:23.695Z,74.84
2019-03-05T21:58:54.993Z,75.27
2019-03-05T22:01:26.283Z,75.68
2019-03-05T22:04:16.529Z,76.27
2019-03-05T22:06:47.775Z,76.93
2019-03-05T22:09:21.466Z,76.90
2019-03-05T22:11:52.827Z,77.20
2019-03-05T22:14:24.146Z,77.36
2019-03-05T22:16:55.504Z,77.24
2019-03-05T22:19:26.912Z,76.68
2019-03-05T22:21:58.165Z,77.39
2019-03-05T22:24:29.412Z,77.32
2019-03-05T22:27:00.654Z,77.79
2019-03-05T22:29:31.837Z,77.69
2019-03-05T22:32:03.387Z,77.72
2019-03-05T22:34:34.606Z,77.68
2019-03-05T22:37:09.133Z,78.10
2019-03-05T22:39:40.369Z,77.89
2019-03-05T22:42:11.790Z,78.15
2019-03-05T22:44:43.481Z,78.24
2019-03-05T22:47:14.776Z,78.21
2019-03-05T22:49:45.994Z,78.18
2019-03-05T22:52:17.969Z,78.01
2019-03-05T22:54:50.301Z,77.97
2019-03-05T22:57:21.435Z,77.22
2019-03-05T22:59:52.667Z,76.20
2019-03-05T23:02:23.957Z,75.69
2019-03-05T23:04:55.884Z,75.39
2019-03-05T23:07:30.217Z,75.27
2019-03-05T23:10:01.465Z,74.88
2019-03-05T23:12:32.930Z,75.35
2019-03-05T23:15:04.444Z,74.98
2019-03-05T23:17:35.684Z,74.24
2019-03-05T23:20:07.353Z,74.47
2019-03-05T23:22:38.819Z,74.16
2019-03-05T23:25:10.631Z,73.83
2019-03-05T23:27:42.017Z,73.70
2019-03-05T23:30:14.730Z,73.63
2019-03-05T23:32:48.437Z,73.59
2019-03-05T23:35:19.792Z,73.33
2019-03-05T23:37:51.277Z,73.09
2019-03-05T23:40:22.699Z,72.91
2019-03-05T23:42:54.054Z,72.71
2019-03-05T23:45:25.398Z,72.57
2019-03-05T23:47:56.661Z,73.19
2019-03-05T23:50:27.895Z,72.80
2019-03-05T23:52:59.493Z,72.27
2019-03-05T23:55:31.431Z,72.59
2019-03-05T23:58:02.793Z,72.45
